createdAt,value
2022-12-26T00:00:39.864Z,3.83
2022-12-26T00:03:31.675Z,3.81
2022-12-26T00:06:03.459Z,3.79
2022-12-26T00:08:33.614Z,3.78
2022-12-26T00:11:05.323Z,3.76
2022-12-26T00:13:39.384Z,3.76
2022-12-26T00:16:15.921Z,3.73
2022-12-26T00:18:48.198Z,3.76
2022-12-26T00:21:20.611Z,3.76
2022-12-26T00:23:52.378Z,3.75
2022-12-26T00:26:26.325Z,3.73
2022-12-26T00:29:07.588Z,3.72
2022-12-26T00:31:40.004Z,3.71
2022-12-26T00:34:15.245Z,3.71
2022-12-26T00:36:47.791Z,3.70
2022-12-26T00:39:22.523Z,3.70
2022-12-26T00:41:54.190Z,3.70
2022-12-26T00:44:27.156Z,3.68
2022-12-26T00:46:58.903Z,3.63
2022-12-26T00:50:12.985Z,3.62
2022-12-26T00:52:23.665Z,3.58
2022-12-26T00:54:58.420Z,3.52
2022-12-26T00:57:32.680Z,3.45
2022-12-26T01:00:05.411Z,3.41
2022-12-26T01:02:43.122Z,3.38
2022-12-26T01:05:17.962Z,3.36
2022-12-26T01:08:20.545Z,3.37
2022-12-26T01:10:43.853Z,3.35
2022-12-26T01:13:16.298Z,3.34
2022-12-26T01:15:54.704Z,3.35
2022-12-26T01:18:26.396Z,3.37
2022-12-26T01:21:08.703Z,3.39
2022-12-26T01:23:42.784Z,3.37
2022-12-26T01:26:16.350Z,3.38
2022-12-26T01:28:53.461Z,3.35
2022-12-26T01:31:25.728Z,3.37
2022-12-26T01:33:57.444Z,3.40
2022-12-26T01:36:27.593Z,3.42
2022-12-26T01:38:59.235Z,3.42
2022-12-26T01:41:33.279Z,3.46
2022-12-26T01:44:07.585Z,3.48
2022-12-26T01:46:41.779Z,3.42
2022-12-26T01:49:18.524Z,3.30
2022-12-26T01:51:57.660Z,3.22
2022-12-26T01:54:40.220Z,3.20
2022-12-26T01:57:18.429Z,3.18
2022-12-26T01:59:51.323Z,3.14
2022-12-26T02:02:24.341Z,3.14
2022-12-26T02:05:16.508Z,3.16
2022-12-26T02:07:49.718Z,3.19
2022-12-26T02:10:27.672Z,3.21
2022-12-26T02:13:00.660Z,3.22
2022-12-26T02:15:33.067Z,3.21
2022-12-26T02:18:04.930Z,3.20
2022-12-26T02:20:49.312Z,3.21
2022-12-26T02:23:45.195Z,3.23
2022-12-26T02:26:51.034Z,3.25
2022-12-26T02:29:58.465Z,3.25
2022-12-26T02:32:43.832Z,3.27
2022-12-26T02:35:25.764Z,3.25
2022-12-26T02:38:08.720Z,3.22
2022-12-26T02:40:52.284Z,3.19
2022-12-26T02:43:34.357Z,3.18
2022-12-26T02:46:35.763Z,3.17
2022-12-26T02:49:16.394Z,3.17
2022-12-26T02:52:31.705Z,3.16
2022-12-26T02:55:25.729Z,3.14
2022-12-26T02:58:23.686Z,3.12
2022-12-26T03:01:19.573Z,3.08
2022-12-26T03:04:12.172Z,3.00
2022-12-26T03:07:03.928Z,2.92
2022-12-26T03:09:55.832Z,2.84
2022-12-26T03:12:49.068Z,2.81
2022-12-26T03:15:24.998Z,2.75
2022-12-26T03:18:01.893Z,2.72
2022-12-26T03:20:37.066Z,2.68
2022-12-26T03:23:12.397Z,2.64
2022-12-26T03:26:24.716Z,2.61
2022-12-26T03:29:19.068Z,2.54
2022-12-26T03:31:51.337Z,2.49
2022-12-26T03:34:23.431Z,2.45
2022-12-26T03:37:49.329Z,2.41
2022-12-26T03:40:58.106Z,2.35
2022-12-26T03:44:10.790Z,2.36
2022-12-26T03:47:13.286Z,2.40
2022-12-26T03:50:10.551Z,2.43
2022-12-26T03:53:15.923Z,2.48
2022-12-26T03:56:07.262Z,2.54
2022-12-26T03:59:12.000Z,2.58
2022-12-26T04:02:05.291Z,2.61
2022-12-26T04:04:58.436Z,2.62
2022-12-26T04:07:56.654Z,2.63
2022-12-26T04:10:53.354Z,2.62
2022-12-26T04:13:47.774Z,2.62
2022-12-26T04:16:56.278Z,2.56
2022-12-26T04:19:45.380Z,2.53
2022-12-26T04:22:42.250Z,2.52
2022-12-26T04:25:48.188Z,2.50
2022-12-26T04:28:41.525Z,2.47
2022-12-26T04:31:35.993Z,2.48
2022-12-26T04:34:32.431Z,2.48
2022-12-26T04:37:25.655Z,2.49
2022-12-26T04:40:16.679Z,2.49
2022-12-26T04:43:47.634Z,2.48
2022-12-26T04:45:59.767Z,2.50
2022-12-26T04:48:49.108Z,2.52
2022-12-26T04:51:20.759Z,2.51
2022-12-26T04:53:50.887Z,2.48
2022-12-26T04:56:22.523Z,2.43
2022-12-26T04:58:52.655Z,2.41
2022-12-26T05:01:42.176Z,2.36
2022-12-26T05:04:33.376Z,2.32
2022-12-26T05:07:25.124Z,2.30
2022-12-26T05:09:56.949Z,2.27
2022-12-26T05:12:28.641Z,2.19
2022-12-26T05:14:58.775Z,2.12
2022-12-26T05:17:48.506Z,2.07
2022-12-26T05:20:38.333Z,2.08
2022-12-26T05:23:34.089Z,2.10
2022-12-26T05:26:24.355Z,2.18
2022-12-26T05:29:00.596Z,2.34
2022-12-26T05:31:36.024Z,2.50
2022-12-26T05:34:10.554Z,2.63
2022-12-26T05:36:46.128Z,2.73
2022-12-26T05:39:18.257Z,2.84
2022-12-26T05:41:49.874Z,3.00
2022-12-26T05:44:21.484Z,3.15
2022-12-26T05:46:51.682Z,3.29
2022-12-26T05:49:23.723Z,3.41
2022-12-26T05:51:55.365Z,3.54
2022-12-26T05:54:25.514Z,3.66
2022-12-26T05:56:57.278Z,3.74
2022-12-26T05:59:29.168Z,3.86
2022-12-26T06:02:00.966Z,3.95
2022-12-26T06:04:34.675Z,4.01
2022-12-26T06:07:06.444Z,4.08
2022-12-26T06:09:38.166Z,4.12
2022-12-26T06:12:08.444Z,4.19
2022-12-26T06:14:40.075Z,4.24
2022-12-26T06:17:10.514Z,4.32
2022-12-26T06:19:46.704Z,4.38
2022-12-26T06:22:18.795Z,4.49
2022-12-26T06:24:48.938Z,4.59
2022-12-26T06:27:20.551Z,4.65
2022-12-26T06:29:50.685Z,4.72
2022-12-26T06:32:22.375Z,4.76
2022-12-26T06:34:52.520Z,4.84
2022-12-26T06:37:24.147Z,4.87
2022-12-26T06:39:54.283Z,4.95
2022-12-26T06:42:25.919Z,4.99
2022-12-26T06:44:56.030Z,5.05
2022-12-26T06:47:27.696Z,5.10
2022-12-26T06:49:57.834Z,5.18
2022-12-26T06:52:29.814Z,5.22
2022-12-26T06:55:01.485Z,5.27
2022-12-26T06:57:31.722Z,5.33
2022-12-26T07:00:03.593Z,5.37
2022-12-26T07:02:35.479Z,5.43
2022-12-26T07:05:09.647Z,5.49
2022-12-26T07:07:41.330Z,5.58
2022-12-26T07:10:13.576Z,5.65
2022-12-26T07:12:45.174Z,5.71
2022-12-26T07:15:15.665Z,5.78
2022-12-26T07:17:47.317Z,5.83
2022-12-26T07:20:17.474Z,5.92
2022-12-26T07:22:49.072Z,5.95
2022-12-26T07:25:19.263Z,6.03
2022-12-26T07:27:53.505Z,6.07
2022-12-26T07:30:25.216Z,6.14
2022-12-26T07:32:57.880Z,6.20
2022-12-26T07:35:28.291Z,6.23
2022-12-26T07:37:59.994Z,6.25
2022-12-26T07:40:30.158Z,6.29
2022-12-26T07:43:01.890Z,6.31
2022-12-26T07:45:33.653Z,6.37
2022-12-26T07:48:05.599Z,6.43
2022-12-26T07:50:37.263Z,6.48
2022-12-26T07:53:07.398Z,6.55
2022-12-26T07:55:39.100Z,6.56
2022-12-26T07:58:11.045Z,6.60
2022-12-26T08:00:42.722Z,6.64
2022-12-26T08:03:14.441Z,6.68
2022-12-26T08:05:49.451Z,6.72
2022-12-26T08:08:21.128Z,6.76
2022-12-26T08:10:58.829Z,6.82
2022-12-26T08:13:31.453Z,6.82
2022-12-26T08:16:07.597Z,6.87
2022-12-26T08:18:39.611Z,6.91
2022-12-26T08:21:11.714Z,6.94
2022-12-26T08:23:43.488Z,6.98
2022-12-26T08:26:20.776Z,7.01
2022-12-26T08:28:53.143Z,7.04
2022-12-26T08:33:58.976Z,7.08
2022-12-26T08:36:30.606Z,7.13
2022-12-26T08:39:02.433Z,7.18
2022-12-26T08:41:34.871Z,7.22
2022-12-26T08:46:59.250Z,7.31
2022-12-26T08:49:30.976Z,7.35
2022-12-26T08:52:02.648Z,7.39
2022-12-26T08:54:34.570Z,7.41
2022-12-26T08:57:06.378Z,7.45
2022-12-26T08:59:38.049Z,7.48
2022-12-26T09:02:10.397Z,7.53
2022-12-26T09:04:42.296Z,7.61
2022-12-26T09:07:14.045Z,7.67
2022-12-26T09:09:45.855Z,7.72
2022-12-26T09:12:17.535Z,7.79
2022-12-26T09:14:50.375Z,7.85
2022-12-26T09:17:22.144Z,7.88
2022-12-26T09:19:53.922Z,7.91
2022-12-26T09:22:43.462Z,7.91
2022-12-26T09:25:15.201Z,7.92
2022-12-26T09:27:47.094Z,7.91
2022-12-26T09:30:18.960Z,7.91
2022-12-26T09:32:50.774Z,7.92
2022-12-26T09:35:22.371Z,7.92
2022-12-26T09:37:52.512Z,7.92
2022-12-26T09:40:29.681Z,7.90
2022-12-26T09:43:20.515Z,7.92
2022-12-26T09:46:00.813Z,7.94
2022-12-26T09:48:39.135Z,7.96
2022-12-26T09:51:11.853Z,7.97
2022-12-26T09:53:47.677Z,7.97
2022-12-26T09:57:01.995Z,7.96
2022-12-26T09:59:18.762Z,7.97
2022-12-26T10:01:50.561Z,7.98
2022-12-26T10:04:29.580Z,8.00
2022-12-26T10:07:17.421Z,8.04
2022-12-26T10:10:01.267Z,8.07
2022-12-26T10:12:53.684Z,8.12
2022-12-26T10:15:41.826Z,8.13
2022-12-26T10:18:35.759Z,8.15
2022-12-26T10:21:22.395Z,8.12
2022-12-26T10:23:58.175Z,8.11
2022-12-26T10:26:34.933Z,8.10
2022-12-26T10:29:18.224Z,8.08
2022-12-26T10:31:54.718Z,8.08
2022-12-26T10:34:30.933Z,8.09
2022-12-26T10:37:08.432Z,8.10
2022-12-26T10:39:45.923Z,8.13
2022-12-26T10:42:25.493Z,8.17
2022-12-26T10:44:58.047Z,8.20
2022-12-26T10:47:34.023Z,8.24
2022-12-26T10:50:08.092Z,8.27
2022-12-26T10:52:42.089Z,8.29
2022-12-26T10:55:27.163Z,8.31
2022-12-26T10:58:06.638Z,8.32
2022-12-26T11:00:38.335Z,8.34
2022-12-26T11:03:12.539Z,8.35
2022-12-26T11:08:49.115Z,8.36
2022-12-26T11:11:26.294Z,8.36
2022-12-26T11:14:03.506Z,8.36
2022-12-26T11:16:39.439Z,8.37
2022-12-26T11:19:29.791Z,8.39
2022-12-26T11:22:23.616Z,8.43
2022-12-26T11:25:18.594Z,8.50
2022-12-26T11:27:52.799Z,8.58
2022-12-26T11:30:31.282Z,8.68
2022-12-26T11:33:15.173Z,8.79
2022-12-26T11:35:53.633Z,8.92
2022-12-26T11:38:44.802Z,9.02
2022-12-26T11:41:33.348Z,9.16
2022-12-26T11:44:17.309Z,9.28
2022-12-26T11:46:53.479Z,9.36
2022-12-26T11:49:30.961Z,9.43
2022-12-26T11:52:23.859Z,9.49
2022-12-26T11:54:55.900Z,9.51
2022-12-26T11:57:31.123Z,9.51
2022-12-26T12:00:22.463Z,9.51
2022-12-26T12:02:54.524Z,9.54
2022-12-26T12:05:39.690Z,9.56
2022-12-26T12:08:24.619Z,9.59
2022-12-26T12:11:08.155Z,9.59
2022-12-26T12:14:06.937Z,9.59
2022-12-26T12:16:52.360Z,9.57
2022-12-26T12:19:49.523Z,9.55
2022-12-26T12:22:37.311Z,9.52
2022-12-26T12:25:36.768Z,9.51
2022-12-26T12:28:27.861Z,9.48
2022-12-26T12:31:08.824Z,9.47
2022-12-26T12:33:51.329Z,9.46
2022-12-26T12:36:30.151Z,9.42
2022-12-26T12:39:11.985Z,9.43
2022-12-26T12:42:02.831Z,9.40
2022-12-26T12:44:56.571Z,9.39
2022-12-26T12:47:40.045Z,9.40
2022-12-26T12:50:23.272Z,9.38
2022-12-26T12:53:04.731Z,9.34
2022-12-26T12:55:51.861Z,9.28
2022-12-26T12:58:34.156Z,9.20
2022-12-26T13:01:10.458Z,9.17
2022-12-26T13:03:49.009Z,9.16
2022-12-26T13:06:26.080Z,9.16
2022-12-26T13:09:01.490Z,9.15
2022-12-26T13:11:37.335Z,9.14
2022-12-26T13:14:14.879Z,9.13
2022-12-26T13:16:52.281Z,9.11
2022-12-26T13:19:28.828Z,9.09
2022-12-26T13:22:08.119Z,9.07
2022-12-26T13:24:45.945Z,9.04
2022-12-26T13:27:23.768Z,9.03
2022-12-26T13:29:58.016Z,9.01
2022-12-26T13:32:32.667Z,8.99
2022-12-26T13:35:38.709Z,8.98
2022-12-26T13:38:14.182Z,8.98
2022-12-26T13:41:31.906Z,8.98
2022-12-26T13:44:07.377Z,8.97
2022-12-26T13:46:58.440Z,8.96
2022-12-26T13:49:36.535Z,8.96
2022-12-26T13:52:33.693Z,8.96
2022-12-26T13:55:45.530Z,8.96
2022-12-26T13:58:45.768Z,8.96
2022-12-26T14:01:38.280Z,8.96
2022-12-26T14:04:36.174Z,8.96
2022-12-26T14:07:22.588Z,8.95
2022-12-26T14:10:04.331Z,8.93
2022-12-26T14:12:43.217Z,8.93
2022-12-26T14:15:30.817Z,8.88
2022-12-26T14:18:19.693Z,8.87
2022-12-26T14:20:58.532Z,8.87
2022-12-26T14:23:45.650Z,8.86
2022-12-26T14:26:30.275Z,8.87
2022-12-26T14:29:18.491Z,8.86
2022-12-26T14:32:05.811Z,8.85
2022-12-26T14:34:54.740Z,8.84
2022-12-26T14:37:39.029Z,8.83
2022-12-26T14:40:28.598Z,8.81
2022-12-26T14:43:21.678Z,8.79
2022-12-26T14:45:55.257Z,8.77
2022-12-26T14:49:00.878Z,8.75
2022-12-26T14:51:42.886Z,8.72
2022-12-26T14:54:50.793Z,8.70
2022-12-26T14:57:50.049Z,8.66
2022-12-26T15:00:38.310Z,8.62
2022-12-26T15:03:50.795Z,8.59
2022-12-26T15:07:05.970Z,8.53
2022-12-26T15:10:07.762Z,8.47
2022-12-26T15:13:06.908Z,8.42
2022-12-26T15:15:55.573Z,8.35
2022-12-26T15:19:07.750Z,8.32
2022-12-26T15:22:14.951Z,8.27
2022-12-26T15:25:29.205Z,8.22
2022-12-26T15:28:23.969Z,8.18
2022-12-26T15:31:19.803Z,8.16
2022-12-26T15:33:59.874Z,8.14
2022-12-26T15:36:44.499Z,8.11
2022-12-26T15:39:27.866Z,8.10
2022-12-26T15:42:14.609Z,8.10
2022-12-26T15:44:58.402Z,8.09
2022-12-26T15:47:38.044Z,8.09
2022-12-26T15:50:26.223Z,8.08
2022-12-26T15:53:11.945Z,8.05
2022-12-26T15:55:59.226Z,8.03
2022-12-26T15:58:52.245Z,8.02
2022-12-26T16:01:39.543Z,8.01
2022-12-26T16:04:19.052Z,8.01
2022-12-26T16:07:09.636Z,8.04
2022-12-26T16:09:49.723Z,8.05
2022-12-26T16:12:25.686Z,8.07
2022-12-26T16:15:16.813Z,8.08
2022-12-26T16:17:49.066Z,8.07
2022-12-26T16:20:50.527Z,8.08
2022-12-26T16:23:24.597Z,8.08
2022-12-26T16:25:59.540Z,8.08
2022-12-26T16:28:36.504Z,8.08
2022-12-26T16:31:10.087Z,8.09
2022-12-26T16:33:44.192Z,8.09
2022-12-26T16:36:20.783Z,8.08
2022-12-26T16:38:53.575Z,8.07
2022-12-26T16:41:27.497Z,8.06
2022-12-26T16:44:16.862Z,8.05
2022-12-26T16:46:48.668Z,8.03
2022-12-26T16:49:24.197Z,8.03
2022-12-26T16:51:57.220Z,8.02
2022-12-26T16:54:37.583Z,8.01
2022-12-26T16:57:16.613Z,8.01
2022-12-26T16:59:54.813Z,8.02
2022-12-26T17:02:30.078Z,8.01
2022-12-26T17:05:06.209Z,8.00
2022-12-26T17:07:45.476Z,7.98
2022-12-26T17:10:25.192Z,7.96
2022-12-26T17:13:00.116Z,7.95
2022-12-26T17:15:34.627Z,7.95
2022-12-26T17:18:32.032Z,7.95
2022-12-26T17:24:25.452Z,8.00
2022-12-26T17:27:09.111Z,7.98
2022-12-26T17:29:52.238Z,7.99
2022-12-26T17:32:36.234Z,7.99
2022-12-26T17:35:11.156Z,8.02
2022-12-26T17:37:40.701Z,8.03
2022-12-26T17:40:27.443Z,8.06
2022-12-26T17:43:06.422Z,8.06
2022-12-26T17:45:35.138Z,8.05
2022-12-26T17:48:04.125Z,8.05
2022-12-26T17:50:35.277Z,8.05
2022-12-26T17:53:14.958Z,8.06
2022-12-26T17:55:43.561Z,8.08
2022-12-26T17:58:14.035Z,8.09
2022-12-26T18:00:43.345Z,8.10
2022-12-26T18:03:11.905Z,8.09
2022-12-26T18:05:40.920Z,8.10
2022-12-26T18:08:21.472Z,8.09
2022-12-26T18:10:49.839Z,8.07
2022-12-26T18:13:18.471Z,8.06
2022-12-26T18:15:47.199Z,8.05
2022-12-26T18:18:24.026Z,8.05
2022-12-26T18:20:52.746Z,8.04
2022-12-26T18:23:22.299Z,8.04
2022-12-26T18:25:54.528Z,8.04
2022-12-26T18:28:23.338Z,8.03
2022-12-26T18:30:57.499Z,8.03
2022-12-26T18:33:28.576Z,8.02
2022-12-26T18:35:57.030Z,8.01
2022-12-26T18:38:27.067Z,8.00
2022-12-26T18:40:57.297Z,8.00
2022-12-26T18:43:25.679Z,7.99
2022-12-26T18:45:54.213Z,7.99
2022-12-26T18:48:22.638Z,7.99
2022-12-26T18:50:50.927Z,7.98
2022-12-26T18:53:21.401Z,7.97
2022-12-26T18:55:49.984Z,7.97
2022-12-26T18:58:19.830Z,7.95
2022-12-26T19:00:48.323Z,7.93
2022-12-26T19:03:19.069Z,7.91
2022-12-26T19:05:47.873Z,7.91
2022-12-26T19:08:16.178Z,7.91
2022-12-26T19:10:46.555Z,7.90
2022-12-26T19:13:15.079Z,7.89
2022-12-26T19:15:48.411Z,7.88
2022-12-26T19:18:16.727Z,7.88
2022-12-26T19:20:45.039Z,7.87
2022-12-26T19:23:13.331Z,7.87
2022-12-26T19:25:41.732Z,7.87
2022-12-26T19:28:09.981Z,7.86
2022-12-26T19:30:39.138Z,7.86
2022-12-26T19:33:07.774Z,7.83
2022-12-26T19:35:36.121Z,7.81
2022-12-26T19:38:04.809Z,7.79
2022-12-26T19:40:33.103Z,7.79
2022-12-26T19:43:04.468Z,7.81
2022-12-26T19:45:32.923Z,7.81
2022-12-26T19:48:01.294Z,7.80
2022-12-26T19:50:31.732Z,7.80
2022-12-26T19:53:00.139Z,7.79
2022-12-26T19:55:28.404Z,7.78
2022-12-26T19:57:56.710Z,7.77
2022-12-26T20:00:26.844Z,7.77
2022-12-26T20:02:55.410Z,7.75
2022-12-26T20:05:24.613Z,7.75
2022-12-26T20:07:55.657Z,7.74
2022-12-26T20:10:26.185Z,7.72
2022-12-26T20:12:54.683Z,7.70
2022-12-26T20:15:25.056Z,7.69
2022-12-26T20:17:53.421Z,7.66
2022-12-26T20:20:22.199Z,7.66
2022-12-26T20:22:53.207Z,7.66
2022-12-26T20:25:21.234Z,7.65
2022-12-26T20:27:49.663Z,7.60
2022-12-26T20:30:18.219Z,7.61
2022-12-26T20:32:47.776Z,7.60
2022-12-26T20:35:20.023Z,7.59
2022-12-26T20:37:48.945Z,7.59
2022-12-26T20:40:17.717Z,7.58
2022-12-26T20:42:46.019Z,7.57
2022-12-26T20:45:14.435Z,7.53
2022-12-26T20:47:42.731Z,7.52
2022-12-26T20:50:11.615Z,7.51
2022-12-26T20:52:40.806Z,7.49
2022-12-26T20:55:13.142Z,7.49
2022-12-26T20:57:41.461Z,7.47
2022-12-26T21:00:13.197Z,7.44
2022-12-26T21:02:42.011Z,7.43
2022-12-26T21:05:11.513Z,7.42
2022-12-26T21:07:39.883Z,7.42
2022-12-26T21:10:10.335Z,7.41
2022-12-26T21:12:38.725Z,7.41
2022-12-26T21:15:10.879Z,7.41
2022-12-26T21:17:39.147Z,7.40
2022-12-26T21:20:09.508Z,7.41
2022-12-26T21:22:37.875Z,7.40
2022-12-26T21:25:08.204Z,7.38
2022-12-26T21:27:40.239Z,7.38
2022-12-26T21:30:18.046Z,7.39
2022-12-26T21:32:46.580Z,7.39
2022-12-26T21:35:14.813Z,7.39
2022-12-26T21:37:50.571Z,7.39
2022-12-26T21:40:20.326Z,7.39
2022-12-26T21:42:48.937Z,7.38
2022-12-26T21:45:17.396Z,7.40
2022-12-26T21:47:45.645Z,7.40
2022-12-26T21:50:13.962Z,7.40
2022-12-26T21:52:42.199Z,7.39
2022-12-26T21:55:26.251Z,7.40
2022-12-26T21:57:55.326Z,7.41
2022-12-26T22:00:23.535Z,7.41
2022-12-26T22:03:10.120Z,7.40
2022-12-26T22:05:40.207Z,7.37
2022-12-26T22:08:11.060Z,7.36
2022-12-26T22:11:01.539Z,7.36
2022-12-26T22:13:36.792Z,7.34
2022-12-26T22:16:07.342Z,7.33
2022-12-26T22:18:38.471Z,7.32
2022-12-26T22:21:10.629Z,7.33
2022-12-26T22:23:40.278Z,7.34
2022-12-26T22:26:10.658Z,7.33
2022-12-26T22:28:39.607Z,7.33
2022-12-26T22:31:07.908Z,7.32
2022-12-26T22:33:36.170Z,7.33
2022-12-26T22:36:06.226Z,7.33
2022-12-26T22:38:35.322Z,7.32
2022-12-26T22:41:05.008Z,7.34
2022-12-26T22:43:33.280Z,7.33
2022-12-26T22:46:01.475Z,7.34
2022-12-26T22:48:29.682Z,7.34
2022-12-26T22:50:57.828Z,7.32
2022-12-26T22:53:27.477Z,7.31
2022-12-26T22:55:59.275Z,7.30
2022-12-26T22:58:28.770Z,7.29
2022-12-26T23:00:57.619Z,7.29
2022-12-26T23:03:27.123Z,7.30
2022-12-26T23:05:56.722Z,7.31
2022-12-26T23:08:27.434Z,7.31
2022-12-26T23:10:58.186Z,7.32
2022-12-26T23:13:27.523Z,7.32
2022-12-26T23:16:00.673Z,7.31
2022-12-26T23:18:53.019Z,7.31
2022-12-26T23:21:44.509Z,7.32
2022-12-26T23:24:17.344Z,7.30
2022-12-26T23:26:49.250Z,7.28
2022-12-26T23:29:35.561Z,7.28
2022-12-26T23:32:04.905Z,7.25
2022-12-26T23:34:33.346Z,7.25
2022-12-26T23:37:01.754Z,7.26
2022-12-26T23:39:30.195Z,7.26
2022-12-26T23:41:58.430Z,7.27
2022-12-26T23:44:26.653Z,7.28
2022-12-26T23:46:54.934Z,7.28
2022-12-26T23:49:23.143Z,7.30
2022-12-26T23:51:51.304Z,7.31
2022-12-26T23:54:19.495Z,7.32
2022-12-26T23:56:47.674Z,7.31
2022-12-26T23:59:15.895Z,7.29
